sensor_id;sensor_type;location;lat;lon;timestamp;P1;durP1;ratioP1;P2;durP2;ratioP2
28822;SDS011;15961;54.678;9.110;2023-01-10T00:01:55;31.60;;;4.78;;
28822;SDS011;15961;54.678;9.110;2023-01-10T00:04:21;30.05;;;6.32;;
28822;SDS011;15961;54.678;9.110;2023-01-10T00:06:47;46.10;;;6.57;;
28822;SDS011;15961;54.678;9.110;2023-01-10T00:09:12;36.17;;;4.18;;
28822;SDS011;15961;54.678;9.110;2023-01-10T00:11:38;21.40;;;3.97;;
28822;SDS011;15961;54.678;9.110;2023-01-10T00:14:22;54.05;;;5.63;;
28822;SDS011;15961;54.678;9.110;2023-01-10T00:16:52;32.13;;;5.32;;
28822;SDS011;15961;54.678;9.110;2023-01-10T00:19:17;47.30;;;5.45;;
28822;SDS011;15961;54.678;9.110;2023-01-10T00:21:43;35.50;;;4.72;;
28822;SDS011;15961;54.678;9.110;2023-01-10T00:24:09;34.22;;;3.88;;
28822;SDS011;15961;54.678;9.110;2023-01-10T00:26:42;38.13;;;4.88;;
28822;SDS011;15961;54.678;9.110;2023-01-10T00:29:11;42.53;;;4.60;;
28822;SDS011;15961;54.678;9.110;2023-01-10T00:31:37;24.17;;;3.42;;
28822;SDS011;15961;54.678;9.110;2023-01-10T00:34:03;18.98;;;2.85;;
28822;SDS011;15961;54.678;9.110;2023-01-10T00:36:29;21.50;;;3.38;;
28822;SDS011;15961;54.678;9.110;2023-01-10T00:38:54;19.67;;;3.00;;
28822;SDS011;15961;54.678;9.110;2023-01-10T00:41:20;32.97;;;2.97;;
28822;SDS011;15961;54.678;9.110;2023-01-10T00:46:30;40.17;;;3.67;;
28822;SDS011;15961;54.678;9.110;2023-01-10T00:48:56;14.98;;;2.15;;
28822;SDS011;15961;54.678;9.110;2023-01-10T00:51:21;23.83;;;3.47;;
28822;SDS011;15961;54.678;9.110;2023-01-10T00:53:47;24.27;;;2.67;;
28822;SDS011;15961;54.678;9.110;2023-01-10T00:56:12;26.85;;;3.25;;
28822;SDS011;15961;54.678;9.110;2023-01-10T00:58:38;16.65;;;2.53;;
28822;SDS011;15961;54.678;9.110;2023-01-10T01:01:04;22.45;;;3.35;;
28822;SDS011;15961;54.678;9.110;2023-01-10T01:03:29;16.95;;;2.10;;
28822;SDS011;15961;54.678;9.110;2023-01-10T01:05:55;13.45;;;3.22;;
28822;SDS011;15961;54.678;9.110;2023-01-10T01:08:20;23.58;;;2.58;;
28822;SDS011;15961;54.678;9.110;2023-01-10T01:10:46;32.72;;;3.17;;
28822;SDS011;15961;54.678;9.110;2023-01-10T01:13:16;26.48;;;3.42;;
28822;SDS011;15961;54.678;9.110;2023-01-10T01:15:45;17.15;;;2.65;;
28822;SDS011;15961;54.678;9.110;2023-01-10T01:18:11;21.88;;;2.80;;
28822;SDS011;15961;54.678;9.110;2023-01-10T01:20:39;18.20;;;2.60;;
28822;SDS011;15961;54.678;9.110;2023-01-10T01:23:05;25.15;;;3.33;;
28822;SDS011;15961;54.678;9.110;2023-01-10T01:25:31;17.45;;;2.65;;
28822;SDS011;15961;54.678;9.110;2023-01-10T01:27:57;26.38;;;3.40;;
28822;SDS011;15961;54.678;9.110;2023-01-10T01:30:23;16.08;;;3.08;;
28822;SDS011;15961;54.678;9.110;2023-01-10T01:32:48;24.27;;;2.47;;
28822;SDS011;15961;54.678;9.110;2023-01-10T01:35:14;26.27;;;4.20;;
28822;SDS011;15961;54.678;9.110;2023-01-10T01:37:41;19.65;;;3.92;;
28822;SDS011;15961;54.678;9.110;2023-01-10T01:40:09;18.90;;;2.42;;
28822;SDS011;15961;54.678;9.110;2023-01-10T01:42:38;19.70;;;2.40;;
28822;SDS011;15961;54.678;9.110;2023-01-10T01:47:32;19.42;;;2.13;;
28822;SDS011;15961;54.678;9.110;2023-01-10T01:50:17;20.30;;;2.95;;
28822;SDS011;15961;54.678;9.110;2023-01-10T01:52:50;22.00;;;2.17;;
28822;SDS011;15961;54.678;9.110;2023-01-10T01:55:18;18.38;;;3.15;;
28822;SDS011;15961;54.678;9.110;2023-01-10T01:57:44;22.25;;;2.92;;
28822;SDS011;15961;54.678;9.110;2023-01-10T02:00:11;24.77;;;2.33;;
28822;SDS011;15961;54.678;9.110;2023-01-10T02:02:40;19.80;;;2.17;;
28822;SDS011;15961;54.678;9.110;2023-01-10T02:05:11;25.55;;;2.72;;
28822;SDS011;15961;54.678;9.110;2023-01-10T02:07:40;22.15;;;2.85;;
28822;SDS011;15961;54.678;9.110;2023-01-10T02:13:17;15.55;;;2.50;;
28822;SDS011;15961;54.678;9.110;2023-01-10T02:15:45;32.90;;;3.10;;
28822;SDS011;15961;54.678;9.110;2023-01-10T02:18:11;17.77;;;2.40;;
28822;SDS011;15961;54.678;9.110;2023-01-10T02:20:44;17.25;;;2.25;;
28822;SDS011;15961;54.678;9.110;2023-01-10T02:32:02;29.58;;;2.60;;
28822;SDS011;15961;54.678;9.110;2023-01-10T02:34:45;23.25;;;2.17;;
28822;SDS011;15961;54.678;9.110;2023-01-10T02:37:16;21.27;;;2.28;;
28822;SDS011;15961;54.678;9.110;2023-01-10T02:42:59;29.10;;;3.42;;
28822;SDS011;15961;54.678;9.110;2023-01-10T02:45:29;20.17;;;2.35;;
28822;SDS011;15961;54.678;9.110;2023-01-10T02:48:00;17.92;;;1.95;;
28822;SDS011;15961;54.678;9.110;2023-01-10T02:53:10;10.85;;;1.40;;
28822;SDS011;15961;54.678;9.110;2023-01-10T02:58:52;21.80;;;2.42;;
28822;SDS011;15961;54.678;9.110;2023-01-10T03:04:22;22.42;;;2.58;;
28822;SDS011;15961;54.678;9.110;2023-01-10T03:07:09;23.92;;;2.28;;
28822;SDS011;15961;54.678;9.110;2023-01-10T03:10:11;36.83;;;3.08;;
28822;SDS011;15961;54.678;9.110;2023-01-10T03:12:59;42.65;;;3.90;;
28822;SDS011;15961;54.678;9.110;2023-01-10T03:15:37;32.65;;;3.75;;
28822;SDS011;15961;54.678;9.110;2023-01-10T03:18:06;35.33;;;2.92;;
28822;SDS011;15961;54.678;9.110;2023-01-10T03:20:36;30.38;;;3.50;;
28822;SDS011;15961;54.678;9.110;2023-01-10T03:23:06;51.67;;;3.90;;
28822;SDS011;15961;54.678;9.110;2023-01-10T03:25:34;28.98;;;3.15;;
28822;SDS011;15961;54.678;9.110;2023-01-10T03:28:03;28.35;;;4.45;;
28822;SDS011;15961;54.678;9.110;2023-01-10T03:30:46;34.53;;;3.88;;
28822;SDS011;15961;54.678;9.110;2023-01-10T03:33:23;42.22;;;4.00;;
28822;SDS011;15961;54.678;9.110;2023-01-10T03:41:20;38.47;;;4.78;;
28822;SDS011;15961;54.678;9.110;2023-01-10T03:49:07;36.75;;;4.30;;
28822;SDS011;15961;54.678;9.110;2023-01-10T03:51:34;39.97;;;4.60;;
28822;SDS011;15961;54.678;9.110;2023-01-10T03:54:01;43.45;;;4.47;;
28822;SDS011;15961;54.678;9.110;2023-01-10T03:56:27;36.38;;;4.68;;
28822;SDS011;15961;54.678;9.110;2023-01-10T03:58:53;45.50;;;6.03;;
28822;SDS011;15961;54.678;9.110;2023-01-10T04:01:19;42.90;;;3.28;;
28822;SDS011;15961;54.678;9.110;2023-01-10T04:03:44;54.20;;;4.63;;
28822;SDS011;15961;54.678;9.110;2023-01-10T04:06:10;32.45;;;4.05;;
28822;SDS011;15961;54.678;9.110;2023-01-10T04:08:35;31.15;;;3.85;;
28822;SDS011;15961;54.678;9.110;2023-01-10T04:11:01;39.53;;;3.90;;
28822;SDS011;15961;54.678;9.110;2023-01-10T04:13:26;48.38;;;4.35;;
28822;SDS011;15961;54.678;9.110;2023-01-10T04:15:52;29.70;;;2.85;;
28822;SDS011;15961;54.678;9.110;2023-01-10T04:18:17;31.75;;;4.15;;
28822;SDS011;15961;54.678;9.110;2023-01-10T04:20:43;46.38;;;4.15;;
28822;SDS011;15961;54.678;9.110;2023-01-10T04:23:09;54.30;;;3.83;;
28822;SDS011;15961;54.678;9.110;2023-01-10T04:25:34;34.92;;;3.67;;
28822;SDS011;15961;54.678;9.110;2023-01-10T04:28:00;40.53;;;4.20;;
28822;SDS011;15961;54.678;9.110;2023-01-10T04:30:25;48.80;;;4.43;;
28822;SDS011;15961;54.678;9.110;2023-01-10T04:32:51;45.00;;;5.05;;
28822;SDS011;15961;54.678;9.110;2023-01-10T04:35:17;46.80;;;5.03;;
28822;SDS011;15961;54.678;9.110;2023-01-10T04:37:43;34.05;;;4.18;;
28822;SDS011;15961;54.678;9.110;2023-01-10T04:40:08;36.83;;;4.57;;
28822;SDS011;15961;54.678;9.110;2023-01-10T04:42:35;54.25;;;4.10;;
28822;SDS011;15961;54.678;9.110;2023-01-10T04:45:00;24.25;;;3.85;;
28822;SDS011;15961;54.678;9.110;2023-01-10T04:47:26;47.95;;;4.15;;
28822;SDS011;15961;54.678;9.110;2023-01-10T04:49:52;45.97;;;5.78;;
28822;SDS011;15961;54.678;9.110;2023-01-10T04:52:17;45.55;;;4.75;;
28822;SDS011;15961;54.678;9.110;2023-01-10T04:54:43;33.45;;;4.25;;
28822;SDS011;15961;54.678;9.110;2023-01-10T04:57:08;41.53;;;4.43;;
28822;SDS011;15961;54.678;9.110;2023-01-10T04:59:34;42.35;;;4.03;;
28822;SDS011;15961;54.678;9.110;2023-01-10T05:01:59;47.72;;;4.18;;
28822;SDS011;15961;54.678;9.110;2023-01-10T05:04:25;38.95;;;4.50;;
28822;SDS011;15961;54.678;9.110;2023-01-10T05:06:50;56.17;;;6.55;;
28822;SDS011;15961;54.678;9.110;2023-01-10T05:09:16;32.35;;;4.63;;
28822;SDS011;15961;54.678;9.110;2023-01-10T05:11:41;48.72;;;5.32;;
28822;SDS011;15961;54.678;9.110;2023-01-10T05:14:07;54.75;;;4.88;;
28822;SDS011;15961;54.678;9.110;2023-01-10T05:16:32;32.67;;;4.72;;
28822;SDS011;15961;54.678;9.110;2023-01-10T05:18:59;50.15;;;4.22;;
28822;SDS011;15961;54.678;9.110;2023-01-10T05:21:24;43.20;;;4.85;;
28822;SDS011;15961;54.678;9.110;2023-01-10T05:23:50;37.28;;;5.38;;
28822;SDS011;15961;54.678;9.110;2023-01-10T05:26:16;40.22;;;4.60;;
28822;SDS011;15961;54.678;9.110;2023-01-10T05:28:44;44.08;;;5.15;;
28822;SDS011;15961;54.678;9.110;2023-01-10T05:31:14;37.70;;;4.50;;
28822;SDS011;15961;54.678;9.110;2023-01-10T05:33:43;34.50;;;4.67;;
28822;SDS011;15961;54.678;9.110;2023-01-10T05:36:12;35.00;;;2.97;;
28822;SDS011;15961;54.678;9.110;2023-01-10T05:38:38;36.08;;;4.50;;
28822;SDS011;15961;54.678;9.110;2023-01-10T05:41:03;41.40;;;4.72;;
28822;SDS011;15961;54.678;9.110;2023-01-10T05:43:29;36.70;;;4.38;;
28822;SDS011;15961;54.678;9.110;2023-01-10T05:45:55;42.95;;;3.72;;
28822;SDS011;15961;54.678;9.110;2023-01-10T05:48:20;28.23;;;3.88;;
28822;SDS011;15961;54.678;9.110;2023-01-10T05:50:48;24.90;;;4.53;;
28822;SDS011;15961;54.678;9.110;2023-01-10T05:53:14;41.00;;;4.30;;
28822;SDS011;15961;54.678;9.110;2023-01-10T05:55:40;29.40;;;3.45;;
28822;SDS011;15961;54.678;9.110;2023-01-10T05:58:06;37.83;;;3.15;;
28822;SDS011;15961;54.678;9.110;2023-01-10T06:00:32;35.03;;;3.20;;
28822;SDS011;15961;54.678;9.110;2023-01-10T06:02:57;37.97;;;3.80;;
28822;SDS011;15961;54.678;9.110;2023-01-10T06:05:23;28.23;;;4.72;;
28822;SDS011;15961;54.678;9.110;2023-01-10T06:07:48;38.17;;;4.22;;
28822;SDS011;15961;54.678;9.110;2023-01-10T06:10:14;36.67;;;4.30;;
28822;SDS011;15961;54.678;9.110;2023-01-10T06:12:43;21.20;;;3.58;;
28822;SDS011;15961;54.678;9.110;2023-01-10T06:15:09;56.35;;;5.07;;
28822;SDS011;15961;54.678;9.110;2023-01-10T06:17:35;39.10;;;4.32;;
28822;SDS011;15961;54.678;9.110;2023-01-10T06:20:01;63.63;;;5.22;;
28822;SDS011;15961;54.678;9.110;2023-01-10T06:22:26;60.00;;;6.00;;
28822;SDS011;15961;54.678;9.110;2023-01-10T06:24:52;58.95;;;6.18;;
28822;SDS011;15961;54.678;9.110;2023-01-10T06:27:19;65.20;;;8.00;;
28822;SDS011;15961;54.678;9.110;2023-01-10T06:29:45;63.88;;;6.93;;
28822;SDS011;15961;54.678;9.110;2023-01-10T06:32:10;51.78;;;6.50;;
28822;SDS011;15961;54.678;9.110;2023-01-10T06:34:36;60.40;;;7.63;;
28822;SDS011;15961;54.678;9.110;2023-01-10T06:37:01;76.55;;;6.43;;
28822;SDS011;15961;54.678;9.110;2023-01-10T06:39:27;53.35;;;6.65;;
28822;SDS011;15961;54.678;9.110;2023-01-10T06:41:52;81.82;;;8.50;;
28822;SDS011;15961;54.678;9.110;2023-01-10T06:44:18;85.95;;;9.20;;
28822;SDS011;15961;54.678;9.110;2023-01-10T06:46:43;64.95;;;7.18;;
28822;SDS011;15961;54.678;9.110;2023-01-10T06:49:09;75.82;;;8.10;;
28822;SDS011;15961;54.678;9.110;2023-01-10T06:51:35;44.80;;;5.35;;
28822;SDS011;15961;54.678;9.110;2023-01-10T06:54:00;59.47;;;6.43;;
28822;SDS011;15961;54.678;9.110;2023-01-10T06:56:26;84.32;;;8.13;;
28822;SDS011;15961;54.678;9.110;2023-01-10T06:58:51;84.43;;;7.60;;
28822;SDS011;15961;54.678;9.110;2023-01-10T07:01:18;49.78;;;5.90;;
28822;SDS011;15961;54.678;9.110;2023-01-10T07:03:44;63.25;;;6.88;;
28822;SDS011;15961;54.678;9.110;2023-01-10T07:06:10;74.40;;;7.82;;
28822;SDS011;15961;54.678;9.110;2023-01-10T07:08:40;56.95;;;6.75;;
28822;SDS011;15961;54.678;9.110;2023-01-10T07:11:07;64.25;;;6.75;;
28822;SDS011;15961;54.678;9.110;2023-01-10T07:13:33;65.70;;;6.53;;
28822;SDS011;15961;54.678;9.110;2023-01-10T07:16:05;59.42;;;7.82;;
28822;SDS011;15961;54.678;9.110;2023-01-10T07:18:33;62.72;;;7.00;;
28822;SDS011;15961;54.678;9.110;2023-01-10T07:20:59;65.18;;;6.32;;
28822;SDS011;15961;54.678;9.110;2023-01-10T07:23:24;48.80;;;6.78;;
28822;SDS011;15961;54.678;9.110;2023-01-10T07:25:50;67.28;;;6.60;;
28822;SDS011;15961;54.678;9.110;2023-01-10T07:28:16;64.63;;;8.85;;
28822;SDS011;15961;54.678;9.110;2023-01-10T07:30:42;72.15;;;7.88;;
28822;SDS011;15961;54.678;9.110;2023-01-10T07:33:07;87.30;;;9.63;;
28822;SDS011;15961;54.678;9.110;2023-01-10T07:35:33;87.82;;;10.73;;
28822;SDS011;15961;54.678;9.110;2023-01-10T07:37:58;63.63;;;6.93;;
28822;SDS011;15961;54.678;9.110;2023-01-10T07:40:25;65.13;;;8.20;;
28822;SDS011;15961;54.678;9.110;2023-01-10T07:42:55;75.05;;;10.27;;
28822;SDS011;15961;54.678;9.110;2023-01-10T07:45:22;81.15;;;9.13;;
28822;SDS011;15961;54.678;9.110;2023-01-10T07:47:47;79.28;;;8.75;;
28822;SDS011;15961;54.678;9.110;2023-01-10T07:50:13;76.35;;;9.35;;
28822;SDS011;15961;54.678;9.110;2023-01-10T07:52:39;55.40;;;8.05;;
28822;SDS011;15961;54.678;9.110;2023-01-10T07:55:04;82.78;;;9.45;;
28822;SDS011;15961;54.678;9.110;2023-01-10T07:57:30;73.18;;;8.18;;
28822;SDS011;15961;54.678;9.110;2023-01-10T07:59:56;91.63;;;9.80;;
28822;SDS011;15961;54.678;9.110;2023-01-10T08:02:22;76.45;;;9.15;;
28822;SDS011;15961;54.678;9.110;2023-01-10T08:04:47;59.55;;;7.35;;
28822;SDS011;15961;54.678;9.110;2023-01-10T08:07:13;77.78;;;8.70;;
28822;SDS011;15961;54.678;9.110;2023-01-10T08:09:38;74.18;;;7.82;;
28822;SDS011;15961;54.678;9.110;2023-01-10T08:12:04;70.13;;;9.15;;
28822;SDS011;15961;54.678;9.110;2023-01-10T08:14:30;73.35;;;7.85;;
28822;SDS011;15961;54.678;9.110;2023-01-10T08:16:55;55.40;;;7.35;;
28822;SDS011;15961;54.678;9.110;2023-01-10T08:19:21;77.15;;;8.00;;
28822;SDS011;15961;54.678;9.110;2023-01-10T08:21:46;67.28;;;8.70;;
28822;SDS011;15961;54.678;9.110;2023-01-10T08:24:12;51.28;;;9.35;;
28822;SDS011;15961;54.678;9.110;2023-01-10T08:26:37;69.22;;;8.65;;
28822;SDS011;15961;54.678;9.110;2023-01-10T08:29:03;72.40;;;9.88;;
28822;SDS011;15961;54.678;9.110;2023-01-10T08:31:30;62.25;;;9.73;;
28822;SDS011;15961;54.678;9.110;2023-01-10T08:33:56;44.33;;;7.80;;
28822;SDS011;15961;54.678;9.110;2023-01-10T08:36:21;45.58;;;7.47;;
28822;SDS011;15961;54.678;9.110;2023-01-10T08:38:48;50.85;;;7.35;;
28822;SDS011;15961;54.678;9.110;2023-01-10T08:41:14;69.38;;;9.60;;
28822;SDS011;15961;54.678;9.110;2023-01-10T08:43:40;50.65;;;7.35;;
28822;SDS011;15961;54.678;9.110;2023-01-10T08:46:06;52.00;;;6.90;;
28822;SDS011;15961;54.678;9.110;2023-01-10T08:48:32;53.20;;;6.50;;
28822;SDS011;15961;54.678;9.110;2023-01-10T08:50:57;53.17;;;7.07;;
28822;SDS011;15961;54.678;9.110;2023-01-10T08:53:28;44.42;;;7.05;;
28822;SDS011;15961;54.678;9.110;2023-01-10T08:55:55;48.17;;;7.00;;
28822;SDS011;15961;54.678;9.110;2023-01-10T08:58:21;47.85;;;6.60;;
28822;SDS011;15961;54.678;9.110;2023-01-10T09:00:46;56.17;;;8.25;;
28822;SDS011;15961;54.678;9.110;2023-01-10T09:03:13;58.25;;;6.88;;
28822;SDS011;15961;54.678;9.110;2023-01-10T09:05:39;60.15;;;7.72;;
28822;SDS011;15961;54.678;9.110;2023-01-10T09:08:04;58.90;;;7.18;;
28822;SDS011;15961;54.678;9.110;2023-01-10T09:10:30;66.30;;;7.00;;
28822;SDS011;15961;54.678;9.110;2023-01-10T09:12:56;41.03;;;7.47;;
28822;SDS011;15961;54.678;9.110;2023-01-10T09:15:26;57.42;;;7.18;;
28822;SDS011;15961;54.678;9.110;2023-01-10T09:17:57;37.22;;;7.18;;
28822;SDS011;15961;54.678;9.110;2023-01-10T09:20:24;53.35;;;7.78;;
28822;SDS011;15961;54.678;9.110;2023-01-10T09:22:52;42.25;;;7.22;;
28822;SDS011;15961;54.678;9.110;2023-01-10T09:25:18;46.80;;;8.27;;
28822;SDS011;15961;54.678;9.110;2023-01-10T09:27:43;52.80;;;6.53;;
28822;SDS011;15961;54.678;9.110;2023-01-10T09:30:09;50.53;;;7.75;;
28822;SDS011;15961;54.678;9.110;2023-01-10T09:32:35;34.75;;;6.50;;
28822;SDS011;15961;54.678;9.110;2023-01-10T09:35:01;36.72;;;6.22;;
28822;SDS011;15961;54.678;9.110;2023-01-10T09:37:27;35.85;;;6.53;;
28822;SDS011;15961;54.678;9.110;2023-01-10T09:39:53;48.85;;;9.02;;
28822;SDS011;15961;54.678;9.110;2023-01-10T09:44:58;49.00;;;11.37;;
28822;SDS011;15961;54.678;9.110;2023-01-10T09:47:37;49.65;;;11.00;;
28822;SDS011;15961;54.678;9.110;2023-01-10T09:52:51;49.60;;;10.77;;
28822;SDS011;15961;54.678;9.110;2023-01-10T09:55:32;45.28;;;10.73;;
28822;SDS011;15961;54.678;9.110;2023-01-10T09:58:03;48.38;;;11.43;;
28822;SDS011;15961;54.678;9.110;2023-01-10T10:00:37;37.05;;;10.52;;
28822;SDS011;15961;54.678;9.110;2023-01-10T10:03:26;44.88;;;11.27;;
28822;SDS011;15961;54.678;9.110;2023-01-10T10:05:55;41.28;;;9.45;;
28822;SDS011;15961;54.678;9.110;2023-01-10T10:08:21;47.15;;;10.68;;
28822;SDS011;15961;54.678;9.110;2023-01-10T10:19:47;48.72;;;10.65;;
28822;SDS011;15961;54.678;9.110;2023-01-10T10:27:42;44.28;;;10.07;;
28822;SDS011;15961;54.678;9.110;2023-01-10T10:30:28;46.58;;;10.07;;
28822;SDS011;15961;54.678;9.110;2023-01-10T10:35:48;40.05;;;7.47;;
28822;SDS011;15961;54.678;9.110;2023-01-10T10:38:21;58.20;;;9.23;;
28822;SDS011;15961;54.678;9.110;2023-01-10T10:40:50;38.95;;;7.82;;
28822;SDS011;15961;54.678;9.110;2023-01-10T10:43:19;46.40;;;8.73;;
28822;SDS011;15961;54.678;9.110;2023-01-10T10:48:29;62.67;;;10.02;;
28822;SDS011;15961;54.678;9.110;2023-01-10T10:51:13;38.20;;;7.78;;
28822;SDS011;15961;54.678;9.110;2023-01-10T10:53:41;57.47;;;8.55;;
28822;SDS011;15961;54.678;9.110;2023-01-10T10:56:09;51.60;;;10.10;;
28822;SDS011;15961;54.678;9.110;2023-01-10T10:58:38;74.68;;;9.85;;
28822;SDS011;15961;54.678;9.110;2023-01-10T11:01:06;43.75;;;8.18;;
28822;SDS011;15961;54.678;9.110;2023-01-10T11:03:43;41.83;;;7.65;;
28822;SDS011;15961;54.678;9.110;2023-01-10T11:08:39;41.95;;;7.78;;
28822;SDS011;15961;54.678;9.110;2023-01-10T11:13:58;69.45;;;11.05;;
28822;SDS011;15961;54.678;9.110;2023-01-10T11:16:38;53.17;;;7.20;;
28822;SDS011;15961;54.678;9.110;2023-01-10T11:22:03;48.65;;;6.93;;
28822;SDS011;15961;54.678;9.110;2023-01-10T11:27:04;50.60;;;7.63;;
28822;SDS011;15961;54.678;9.110;2023-01-10T11:29:43;51.38;;;8.10;;
28822;SDS011;15961;54.678;9.110;2023-01-10T11:32:13;56.15;;;8.25;;
28822;SDS011;15961;54.678;9.110;2023-01-10T11:34:51;53.28;;;6.45;;
28822;SDS011;15961;54.678;9.110;2023-01-10T11:37:24;34.58;;;6.72;;
28822;SDS011;15961;54.678;9.110;2023-01-10T11:42:40;47.95;;;7.85;;
28822;SDS011;15961;54.678;9.110;2023-01-10T11:47:44;55.88;;;6.57;;
28822;SDS011;15961;54.678;9.110;2023-01-10T11:50:32;46.88;;;7.65;;
28822;SDS011;15961;54.678;9.110;2023-01-10T11:53:00;40.00;;;6.07;;
28822;SDS011;15961;54.678;9.110;2023-01-10T11:55:29;73.45;;;7.45;;
28822;SDS011;15961;54.678;9.110;2023-01-10T11:58:04;55.58;;;6.13;;
28822;SDS011;15961;54.678;9.110;2023-01-10T12:06:34;41.35;;;6.22;;
28822;SDS011;15961;54.678;9.110;2023-01-10T12:08:53;41.88;;;5.50;;
28822;SDS011;15961;54.678;9.110;2023-01-10T12:13:57;52.40;;;8.32;;
28822;SDS011;15961;54.678;9.110;2023-01-10T12:16:25;58.65;;;8.15;;
28822;SDS011;15961;54.678;9.110;2023-01-10T12:18:53;72.07;;;9.98;;
28822;SDS011;15961;54.678;9.110;2023-01-10T12:21:25;38.83;;;6.35;;
28822;SDS011;15961;54.678;9.110;2023-01-10T12:23:54;63.17;;;7.85;;
28822;SDS011;15961;54.678;9.110;2023-01-10T12:26:23;55.47;;;6.50;;
28822;SDS011;15961;54.678;9.110;2023-01-10T12:28:52;52.97;;;7.25;;
28822;SDS011;15961;54.678;9.110;2023-01-10T12:31:21;42.58;;;7.95;;
28822;SDS011;15961;54.678;9.110;2023-01-10T12:33:50;45.97;;;8.05;;
28822;SDS011;15961;54.678;9.110;2023-01-10T12:45:07;42.45;;;7.85;;
28822;SDS011;15961;54.678;9.110;2023-01-10T12:50:29;57.05;;;8.35;;
28822;SDS011;15961;54.678;9.110;2023-01-10T12:52:58;51.15;;;8.98;;
28822;SDS011;15961;54.678;9.110;2023-01-10T12:55:36;61.10;;;10.45;;
28822;SDS011;15961;54.678;9.110;2023-01-10T12:58:11;61.35;;;8.82;;
28822;SDS011;15961;54.678;9.110;2023-01-10T13:00:51;78.95;;;11.10;;
28822;SDS011;15961;54.678;9.110;2023-01-10T13:03:23;60.30;;;8.68;;
28822;SDS011;15961;54.678;9.110;2023-01-10T13:05:53;75.13;;;9.60;;
28822;SDS011;15961;54.678;9.110;2023-01-10T13:08:22;75.47;;;10.13;;
28822;SDS011;15961;54.678;9.110;2023-01-10T13:10:51;57.28;;;9.40;;
28822;SDS011;15961;54.678;9.110;2023-01-10T13:21:29;69.70;;;9.93;;
28822;SDS011;15961;54.678;9.110;2023-01-10T13:24:00;53.50;;;8.77;;
28822;SDS011;15961;54.678;9.110;2023-01-10T13:29:10;48.28;;;8.65;;
28822;SDS011;15961;54.678;9.110;2023-01-10T13:31:40;50.58;;;8.45;;
28822;SDS011;15961;54.678;9.110;2023-01-10T13:34:06;61.78;;;8.85;;
28822;SDS011;15961;54.678;9.110;2023-01-10T13:36:36;58.90;;;7.78;;
28822;SDS011;15961;54.678;9.110;2023-01-10T13:39:21;52.75;;;8.38;;
28822;SDS011;15961;54.678;9.110;2023-01-10T14:08:56;56.97;;;8.40;;
28822;SDS011;15961;54.678;9.110;2023-01-10T14:11:25;47.10;;;7.35;;
28822;SDS011;15961;54.678;9.110;2023-01-10T14:14:54;68.78;;;9.27;;
28822;SDS011;15961;54.678;9.110;2023-01-10T14:17:14;51.50;;;7.03;;
28822;SDS011;15961;54.678;9.110;2023-01-10T14:19:43;43.70;;;7.28;;
28822;SDS011;15961;54.678;9.110;2023-01-10T14:22:25;41.70;;;6.97;;
28822;SDS011;15961;54.678;9.110;2023-01-10T14:24:55;37.13;;;6.65;;
28822;SDS011;15961;54.678;9.110;2023-01-10T14:27:22;56.20;;;7.35;;
28822;SDS011;15961;54.678;9.110;2023-01-10T14:29:53;57.30;;;7.05;;
28822;SDS011;15961;54.678;9.110;2023-01-10T14:32:37;47.13;;;7.22;;
28822;SDS011;15961;54.678;9.110;2023-01-10T14:35:08;58.85;;;6.35;;
28822;SDS011;15961;54.678;9.110;2023-01-10T14:37:40;45.65;;;6.78;;
28822;SDS011;15961;54.678;9.110;2023-01-10T14:43:00;42.75;;;6.93;;
28822;SDS011;15961;54.678;9.110;2023-01-10T14:51:15;63.72;;;8.07;;
28822;SDS011;15961;54.678;9.110;2023-01-10T14:53:47;50.33;;;7.68;;
28822;SDS011;15961;54.678;9.110;2023-01-10T14:58:49;39.70;;;6.57;;
28822;SDS011;15961;54.678;9.110;2023-01-10T15:01:17;51.10;;;8.80;;
28822;SDS011;15961;54.678;9.110;2023-01-10T15:03:50;49.08;;;7.00;;
28822;SDS011;15961;54.678;9.110;2023-01-10T15:06:16;53.42;;;7.10;;
28822;SDS011;15961;54.678;9.110;2023-01-10T15:08:42;34.80;;;6.43;;
28822;SDS011;15961;54.678;9.110;2023-01-10T15:11:08;39.35;;;7.55;;
28822;SDS011;15961;54.678;9.110;2023-01-10T15:13:40;35.50;;;7.07;;
28822;SDS011;15961;54.678;9.110;2023-01-10T15:16:29;45.38;;;8.30;;
28822;SDS011;15961;54.678;9.110;2023-01-10T15:18:56;33.35;;;6.13;;
28822;SDS011;15961;54.678;9.110;2023-01-10T15:21:22;55.10;;;7.95;;
28822;SDS011;15961;54.678;9.110;2023-01-10T15:23:49;44.17;;;5.93;;
28822;SDS011;15961;54.678;9.110;2023-01-10T15:26:16;40.67;;;6.45;;
28822;SDS011;15961;54.678;9.110;2023-01-10T15:29:09;55.13;;;7.03;;
28822;SDS011;15961;54.678;9.110;2023-01-10T15:31:47;47.78;;;6.22;;
28822;SDS011;15961;54.678;9.110;2023-01-10T15:34:21;60.22;;;7.32;;
28822;SDS011;15961;54.678;9.110;2023-01-10T15:36:53;60.22;;;6.78;;
28822;SDS011;15961;54.678;9.110;2023-01-10T15:39:22;46.75;;;6.63;;
28822;SDS011;15961;54.678;9.110;2023-01-10T15:41:54;48.92;;;6.90;;
28822;SDS011;15961;54.678;9.110;2023-01-10T15:44:22;45.47;;;8.02;;
28822;SDS011;15961;54.678;9.110;2023-01-10T15:49:58;54.30;;;7.38;;
28822;SDS011;15961;54.678;9.110;2023-01-10T15:52:24;42.67;;;6.75;;
28822;SDS011;15961;54.678;9.110;2023-01-10T15:54:50;42.05;;;6.93;;
28822;SDS011;15961;54.678;9.110;2023-01-10T15:57:19;46.33;;;6.38;;
28822;SDS011;15961;54.678;9.110;2023-01-10T15:59:56;40.75;;;7.80;;
28822;SDS011;15961;54.678;9.110;2023-01-10T16:02:24;30.35;;;7.03;;
28822;SDS011;15961;54.678;9.110;2023-01-10T16:04:56;32.88;;;5.63;;
28822;SDS011;15961;54.678;9.110;2023-01-10T16:07:29;41.42;;;6.63;;
28822;SDS011;15961;54.678;9.110;2023-01-10T16:10:03;55.55;;;7.05;;
28822;SDS011;15961;54.678;9.110;2023-01-10T16:12:32;43.72;;;6.50;;
28822;SDS011;15961;54.678;9.110;2023-01-10T16:15:20;51.00;;;7.55;;
28822;SDS011;15961;54.678;9.110;2023-01-10T16:17:47;39.97;;;7.30;;
28822;SDS011;15961;54.678;9.110;2023-01-10T16:20:14;46.45;;;8.13;;
28822;SDS011;15961;54.678;9.110;2023-01-10T16:22:42;52.38;;;7.65;;
28822;SDS011;15961;54.678;9.110;2023-01-10T16:25:15;44.45;;;8.40;;
28822;SDS011;15961;54.678;9.110;2023-01-10T16:27:43;45.50;;;8.80;;
28822;SDS011;15961;54.678;9.110;2023-01-10T16:30:51;46.78;;;8.18;;
28822;SDS011;15961;54.678;9.110;2023-01-10T16:32:59;63.08;;;10.45;;
28822;SDS011;15961;54.678;9.110;2023-01-10T16:35:33;49.50;;;9.95;;
28822;SDS011;15961;54.678;9.110;2023-01-10T16:37:58;39.33;;;11.13;;
28822;SDS011;15961;54.678;9.110;2023-01-10T16:40:35;57.25;;;9.23;;
28822;SDS011;15961;54.678;9.110;2023-01-10T16:43:04;54.95;;;8.70;;
28822;SDS011;15961;54.678;9.110;2023-01-10T16:45:42;48.70;;;9.95;;
28822;SDS011;15961;54.678;9.110;2023-01-10T16:48:08;42.28;;;9.90;;
28822;SDS011;15961;54.678;9.110;2023-01-10T16:50:34;46.25;;;8.23;;
28822;SDS011;15961;54.678;9.110;2023-01-10T16:52:59;54.95;;;9.02;;
28822;SDS011;15961;54.678;9.110;2023-01-10T16:55:44;50.47;;;9.32;;
28822;SDS011;15961;54.678;9.110;2023-01-10T16:58:13;41.17;;;9.80;;
28822;SDS011;15961;54.678;9.110;2023-01-10T17:00:40;54.85;;;11.95;;
28822;SDS011;15961;54.678;9.110;2023-01-10T17:03:14;60.55;;;10.88;;
28822;SDS011;15961;54.678;9.110;2023-01-10T17:05:44;29.13;;;10.45;;
28822;SDS011;15961;54.678;9.110;2023-01-10T17:08:17;51.10;;;11.50;;
28822;SDS011;15961;54.678;9.110;2023-01-10T17:10:44;65.38;;;12.15;;
28822;SDS011;15961;54.678;9.110;2023-01-10T17:13:13;46.67;;;13.13;;
28822;SDS011;15961;54.678;9.110;2023-01-10T17:15:46;64.53;;;13.25;;
28822;SDS011;15961;54.678;9.110;2023-01-10T17:18:11;57.88;;;13.15;;